Time;durP1;ratioP1;P1;durP2;ratioP2;P2;SDS_P1;SDS_P2;PMS_P1;PMS_P2;Temp;Humidity;BMP_temperature;BMP_pressure;BME280_temperature;BME280_humidity;BME280_pressure;Samples;Min_cycle;Max_cycle;Signal;HPM_P1;HPM_P2
2022/09/15 00:00:10;;;;;;;;;9.67;9.67;;;;;21.13;89.59;98482.84;6311525;20;2783623;-58
2022/09/15 00:02:38;;;;;;;;;11.33;10.00;;;;;21.02;89.81;98464.25;6312376;20;3509696;-57
2022/09/15 00:05:07;;;;;;;;;11.67;11.67;;;;;20.87;90.87;98460.69;6312621;20;3528368;-58
2022/09/15 00:07:36;;;;;;;;;10.00;10.00;;;;;20.76;90.89;98456.56;6316141;20;2792102;-58
2022/09/15 00:10:08;;;;;;;;;11.00;11.00;;;;;20.86;91.50;98467.22;6319470;20;2798645;-58
2022/09/15 00:12:36;;;;;;;;;12.00;9.00;;;;;20.73;91.48;98471.44;6309596;20;2774971;-57
2022/09/15 00:15:06;;;;;;;;;10.67;9.33;;;;;20.78;91.75;98465.44;6311671;20;2778463;-58
2022/09/15 00:17:35;;;;;;;;;11.67;10.67;;;;;20.63;92.42;98464.59;6311313;20;2791933;-57
2022/09/15 00:20:05;;;;;;;;;9.67;9.67;;;;;20.64;92.89;98469.00;6313605;20;2767989;-58
2022/09/15 00:22:34;;;;;;;;;11.00;11.00;;;;;20.62;92.95;98466.47;6316502;20;2789866;-57
2022/09/15 00:25:03;;;;;;;;;13.00;11.00;;;;;20.59;92.97;98461.41;6311845;20;3530452;-58
2022/09/15 00:27:33;;;;;;;;;12.00;12.00;;;;;20.69;92.20;98452.91;6316435;20;2802341;-57
2022/09/15 00:30:04;;;;;;;;;15.00;14.00;;;;;20.70;92.13;98444.53;6311821;20;3534749;-57
2022/09/15 00:32:33;;;;;;;;;12.67;11.00;;;;;20.59;92.65;98428.66;6285627;20;2794048;-57
2022/09/15 00:35:03;;;;;;;;;14.00;12.33;;;;;20.48;93.28;98420.91;6311916;20;3520067;-57
2022/09/15 00:37:33;;;;;;;;;12.00;10.33;;;;;20.43;93.88;98437.84;6278956;20;3505527;-57
2022/09/15 00:40:02;;;;;;;;;13.33;11.67;;;;;20.31;94.71;98445.66;6312014;20;3537874;-57
2022/09/15 00:42:31;;;;;;;;;11.67;11.67;;;;;20.35;94.01;98441.53;6285997;20;2796103;-57
2022/09/15 00:45:02;;;;;;;;;14.00;13.00;;;;;20.39;94.65;98448.28;6311829;20;3521050;-57
2022/09/15 00:47:37;;;;;;;;;11.00;11.00;;;;;20.24;95.22;98449.31;6310434;20;3522227;-56
2022/09/15 00:50:16;;;;;;;;;14.33;14.33;;;;;20.37;94.72;98439.44;6309961;20;3525428;-57
2022/09/15 00:52:55;;;;;;;;;12.67;12.33;;;;;20.36;94.20;98426.84;6278633;20;3528530;-58
2022/09/15 00:55:46;;;;;;;;;14.00;12.67;;;;;20.14;96.17;98405.97;6277508;20;3528435;-52
2022/09/15 00:58:31;;;;;;;;;16.67;15.00;;;;;20.09;96.88;98408.41;6277099;20;3550327;-56
2022/09/15 01:01:03;;;;;;;;;14.33;11.33;;;;;20.09;96.89;98435.66;6275217;20;3529475;-53
2022/09/15 01:03:34;;;;;;;;;11.67;10.67;;;;;20.01;97.53;98450.22;6279710;20;2789860;-54
2022/09/15 01:06:24;;;;;;;;;11.00;11.00;;;;;20.06;97.66;98468.72;6305142;20;3520140;-56
2022/09/15 01:09:29;;;;;;;;;12.00;10.00;;;;;19.96;98.15;98515.34;6307859;20;3518009;-54
2022/09/15 01:11:58;;;;;;;;;14.00;12.33;;;;;20.18;97.06;98480.88;6305380;20;3508589;-55
2022/09/15 01:14:27;;;;;;;;;14.00;14.00;;;;;20.26;96.36;98497.16;6309609;20;2485663;-55
2022/09/15 01:17:34;;;;;;;;;14.00;13.00;;;;;20.33;96.13;98492.66;6306670;20;2483593;-53
2022/09/15 01:20:30;;;;;;;;;11.00;11.00;;;;;20.36;95.69;98497.72;6305043;20;3512875;-53
2022/09/15 01:23:39;;;;;;;;;11.00;11.00;;;;;20.47;95.01;98501.03;6312011;20;3512749;-57
2022/09/15 01:26:58;;;;;;;;;13.67;13.00;;;;;20.45;94.72;98500.38;6310524;20;3523127;-59
2022/09/15 01:30:06;;;;;;;;;15.00;14.00;;;;;20.52;94.87;98502.16;6279917;20;2803612;-60
2022/09/15 01:33:23;;;;;;;;;12.33;12.33;;;;;20.51;94.66;98495.03;6308343;20;3518079;-61
2022/09/15 01:36:13;;;;;;;;;14.33;13.67;;;;;20.61;94.26;98494.75;6309096;20;3535663;-60
2022/09/15 01:39:23;;;;;;;;;12.67;12.67;;;;;20.47;94.80;98492.84;6274148;20;3535672;-59
2022/09/15 01:42:03;;;;;;;;;11.67;11.67;;;;;20.47;95.45;98498.31;6275330;20;3525498;-59
2022/09/15 01:44:50;;;;;;;;;14.00;13.00;;;;;20.34;95.11;98477.97;6275535;20;3518032;-60
2022/09/15 01:47:21;;;;;;;;;15.67;14.00;;;;;20.28;96.29;98477.91;6307180;20;3537802;-59
2022/09/15 01:50:00;;;;;;;;;13.33;12.00;;;;;20.29;96.09;98480.41;6280019;20;3527335;-58
2022/09/15 01:52:31;;;;;;;;;14.67;13.33;;;;;20.29;96.68;98469.50;6276563;20;3539847;-60
2022/09/15 01:55:15;;;;;;;;;14.00;14.00;;;;;20.22;97.21;98468.59;6277253;20;2483765;-58
2022/09/15 01:57:44;;;;;;;;;15.00;14.00;;;;;20.17;97.38;98466.41;6306547;20;2808674;-59
2022/09/15 02:00:13;;;;;;;;;10.00;10.00;;;;;20.12;97.49;98473.47;6277076;20;3523192;-59
2022/09/15 02:02:59;;;;;;;;;13.33;13.33;;;;;20.25;97.89;98476.38;6284440;20;2483637;-60
2022/09/15 02:05:41;;;;;;;;;15.00;14.33;;;;;20.21;97.66;98477.78;6315894;20;3534590;-60
2022/09/15 02:08:23;;;;;;;;;13.00;13.00;;;;;20.10;98.42;98491.88;6278593;20;3531471;-60
2022/09/15 02:11:11;;;;;;;;;14.00;11.33;;;;;20.09;98.93;98488.31;6281730;20;3522767;-59
2022/09/15 02:14:01;;;;;;;;;13.00;12.00;;;;;20.07;99.15;98492.25;6278687;20;2804448;-60
2022/09/15 02:16:35;;;;;;;;;13.50;13.50;;;;;20.08;99.67;98489.31;6279560;20;2794057;-60
2022/09/15 02:19:39;;;;;;;;;12.00;12.00;;;;;20.25;99.21;98489.16;6279271;20;3509637;-60
2022/09/15 02:22:36;;;;;;;;;15.33;15.33;;;;;20.00;100.00;98480.38;6311666;20;3547173;-55
2022/09/15 02:25:12;;;;;;;;;15.00;13.00;;;;;20.07;100.00;98473.16;6282351;20;3515851;-56
2022/09/15 02:27:51;;;;;;;;;13.00;13.00;;;;;19.94;100.00;98466.47;6282088;20;2799213;-54
2022/09/15 02:30:20;;;;;;;;;15.50;15.50;;;;;19.95;100.00;98465.41;6280556;20;2823284;-56
2022/09/15 02:32:57;;;;;;;;;17.33;15.67;;;;;19.99;100.00;98467.78;6286268;20;3556464;-53
2022/09/15 02:35:27;;;;;;;;;11.67;11.67;;;;;20.01;100.00;98477.47;6312632;20;3511777;-56
2022/09/15 02:37:57;;;;;;;;;16.00;15.00;;;;;19.95;100.00;98470.88;6277802;20;2823269;-54
2022/09/15 02:40:28;;;;;;;;;15.33;15.33;;;;;19.85;100.00;98475.75;6282355;20;3539821;-56
2022/09/15 02:43:01;;;;;;;;;17.00;15.00;;;;;19.87;100.00;98484.56;6279515;20;2496090;-54
2022/09/15 02:45:31;;;;;;;;;14.67;14.33;;;;;19.76;100.00;98478.72;6316723;20;2487776;-55
2022/09/15 02:48:00;;;;;;;;;14.00;14.00;;;;;19.86;100.00;98480.16;6313897;20;3529391;-52
2022/09/15 02:50:29;;;;;;;;;12.00;12.00;;;;;19.99;100.00;98476.81;6283133;20;3507536;-52
2022/09/15 02:52:58;;;;;;;;;13.00;13.00;;;;;20.00;100.00;98477.66;6313422;20;2483597;-54
2022/09/15 02:55:27;;;;;;;;;14.33;13.00;;;;;19.89;100.00;98490.69;6313634;20;2485811;-54
2022/09/15 02:57:57;;;;;;;;;15.00;14.67;;;;;19.95;100.00;98481.75;6313102;20;3534626;-55
2022/09/15 03:00:29;;;;;;;;;12.33;12.33;;;;;19.90;100.00;98491.53;6307887;20;2799437;-57
2022/09/15 03:02:58;;;;;;;;;13.33;12.33;;;;;19.93;100.00;98508.38;6315925;20;2483655;-54
2022/09/15 03:05:29;;;;;;;;;11.33;11.33;;;;;20.01;100.00;98512.03;6309077;20;3520158;-53
2022/09/15 03:07:59;;;;;;;;;8.80;8.80;;;;;20.04;100.00;98503.50;6336754;20;2747160;-54
2022/09/15 03:10:27;;;;;;;;;14.33;10.33;;;;;20.05;100.00;98499.75;6281211;20;3521870;-55
2022/09/15 03:12:56;;;;;;;;;12.33;10.00;;;;;19.94;100.00;98499.16;6280965;20;3523626;-56
2022/09/15 03:15:26;;;;;;;;;11.33;10.00;;;;;19.99;100.00;98505.94;6311713;20;3508627;-56
2022/09/15 03:17:54;;;;;;;;;10.67;9.33;;;;;19.91;100.00;98504.13;6320663;20;2778413;-54
2022/09/15 03:20:29;;;;;;;;;9.00;9.00;;;;;19.94;100.00;98507.31;6311744;20;3480501;-56
2022/09/15 03:22:57;;;;;;;;;9.33;9.33;;;;;20.08;100.00;98499.38;6315748;20;2766997;-54
2022/09/15 03:25:27;;;;;;;;;9.20;9.20;;;;;20.01;100.00;98509.31;6337880;20;2778529;-56
2022/09/15 03:27:57;;;;;;;;;10.33;9.33;;;;;19.99;100.00;98505.94;6281196;20;2780588;-54
2022/09/15 03:30:26;;;;;;;;;9.00;8.00;;;;;20.03;100.00;98504.53;6336181;20;2748263;-55
2022/09/15 03:32:55;;;;;;;;;9.40;8.20;;;;;19.92;100.00;98512.09;6301932;20;2735669;-56
2022/09/15 03:35:24;;;;;;;;;8.00;8.00;;;;;20.06;100.00;98518.63;6314482;20;2735816;-58
2022/09/15 03:37:53;;;;;;;;;8.00;8.00;;;;;20.03;100.00;98518.16;6334947;20;2756630;-55
2022/09/15 03:40:22;;;;;;;;;12.33;10.00;;;;;19.95;100.00;98517.19;6279677;20;3517956;-57
2022/09/15 03:42:50;;;;;;;;;9.33;9.33;;;;;20.00;100.00;98513.06;6311672;20;2775251;-52
2022/09/15 03:45:19;;;;;;;;;10.33;9.00;;;;;19.87;100.00;98521.88;6312154;20;2758694;-57
2022/09/15 03:47:47;;;;;;;;;11.00;8.33;;;;;19.86;100.00;98518.28;6319684;20;2766382;-54
2022/09/15 03:50:16;;;;;;;;;10.00;8.67;;;;;19.86;100.00;98518.28;6312263;20;3496282;-55
2022/09/15 03:52:44;;;;;;;;;8.67;8.67;;;;;19.87;100.00;98511.81;6315557;20;2746111;-56
2022/09/15 03:55:14;;;;;;;;;7.40;7.40;;;;;19.88;100.00;98516.25;6339594;20;2756571;-57
2022/09/15 03:57:44;;;;;;;;;11.20;10.00;;;;;20.04;99.88;98519.88;6306214;20;2792071;-56
2022/09/15 04:00:14;;;;;;;;;8.20;8.20;;;;;19.99;99.91;98522.28;6309412;20;2760708;-55
2022/09/15 04:02:42;;;;;;;;;8.00;8.00;;;;;19.94;100.00;98510.06;6280338;20;2745043;-55
2022/09/15 04:05:12;;;;;;;;;7.00;6.67;;;;;19.93;100.00;98511.09;6315030;20;2749342;-56
2022/09/15 04:07:41;;;;;;;;;5.40;4.20;;;;;19.92;100.00;98500.38;6337813;20;2741911;-56
2022/09/15 04:10:11;;;;;;;;;7.00;7.00;;;;;19.85;100.00;98511.16;6340788;20;2747132;-56
2022/09/15 04:12:41;;;;;;;;;6.00;6.00;;;;;19.92;100.00;98523.00;6307877;20;2744019;-54
2022/09/15 04:15:10;;;;;;;;;7.60;7.60;;;;;19.97;100.00;98514.28;6339982;20;2743995;-55
2022/09/15 04:17:39;;;;;;;;;7.67;5.67;;;;;19.97;100.00;98519.75;6280497;20;2734624;-50
2022/09/15 04:20:09;;;;;;;;;8.80;8.80;;;;;19.76;100.00;98517.69;6338479;20;2754843;-56
2022/09/15 04:22:39;;;;;;;;;7.40;7.40;;;;;19.79;100.00;98522.78;6305626;20;2741940;-56
2022/09/15 04:25:08;;;;;;;;;6.00;5.67;;;;;19.80;100.00;98510.88;6282991;20;2741916;-56
2022/09/15 04:27:37;;;;;;;;;6.40;6.00;;;;;19.71;100.00;98514.66;6330933;20;2739826;-50
2022/09/15 04:30:08;;;;;;;;;7.20;7.20;;;;;19.81;100.00;98520.72;6307601;20;2740885;-54
2022/09/15 04:32:38;;;;;;;;;6.80;6.80;;;;;19.74;100.00;98509.69;6339987;20;2737719;-53
2022/09/15 04:35:08;;;;;;;;;5.00;5.00;;;;;19.61;100.00;98516.75;6339231;20;2736697;-52
2022/09/15 04:37:38;;;;;;;;;8.00;8.00;;;;;19.69;100.00;98522.16;6336823;20;2754482;-54
2022/09/15 04:40:09;;;;;;;;;10.33;9.33;;;;;19.71;100.00;98514.66;6280042;20;2786200;-54
2022/09/15 04:42:38;;;;;;;;;7.00;7.00;;;;;19.72;100.00;98525.38;6336383;20;2741917;-55
2022/09/15 04:45:08;;;;;;;;;10.00;8.00;;;;;19.77;100.00;98534.88;6308492;20;2772344;-55
2022/09/15 04:47:37;;;;;;;;;6.40;6.40;;;;;19.86;100.00;98542.81;6338379;20;2737777;-56
2022/09/15 04:50:07;;;;;;;;;7.60;6.60;;;;;19.92;100.00;98550.25;6337422;20;2744106;-57
2022/09/15 04:52:36;;;;;;;;;6.60;6.60;;;;;19.87;100.00;98544.50;6339736;20;2740071;-52
2022/09/15 04:55:07;;;;;;;;;10.80;9.00;;;;;19.90;100.00;98544.13;6336533;20;2765924;-54
2022/09/15 04:57:36;;;;;;;;;7.60;7.60;;;;;20.03;100.00;98545.41;6307561;20;2740015;-56
2022/09/15 05:00:06;;;;;;;;;8.00;7.67;;;;;19.92;100.00;98555.69;6317063;20;2746252;-56
2022/09/15 05:02:35;;;;;;;;;7.40;6.60;;;;;20.01;100.00;98548.31;6338976;20;2736745;-56
2022/09/15 05:05:05;;;;;;;;;7.40;7.40;;;;;20.04;100.00;98552.56;6337084;20;2740940;-54
2022/09/15 05:07:35;;;;;;;;;8.00;8.00;;;;;20.06;100.00;98553.19;6339945;20;2753414;-56
2022/09/15 05:10:05;;;;;;;;;8.20;8.20;;;;;19.96;100.00;98550.75;6304436;20;2739011;-55
2022/09/15 05:12:34;;;;;;;;;7.33;7.33;;;;;19.89;100.00;98550.63;6282052;20;2737737;-55
2022/09/15 05:15:02;;;;;;;;;7.67;7.67;;;;;20.02;100.00;98549.16;6319751;20;2756489;-57
2022/09/15 05:17:33;;;;;;;;;5.40;5.40;;;;;20.09;100.00;98547.38;6334483;20;2747154;-52
2022/09/15 05:20:03;;;;;;;;;8.33;8.33;;;;;20.00;100.00;98551.22;6278204;20;2751289;-55
2022/09/15 05:22:33;;;;;;;;;7.40;7.40;;;;;20.02;100.00;98554.63;6339519;20;2741960;-54
2022/09/15 05:25:09;;;;;;;;;9.20;9.20;;;;;20.03;100.00;98561.75;6303563;20;2769022;-54
2022/09/15 05:27:39;;;;;;;;;9.00;9.00;;;;;20.12;100.00;98572.41;6306427;20;2750272;-54
2022/09/15 05:30:09;;;;;;;;;7.00;7.00;;;;;20.18;100.00;98582.56;6337230;20;2735656;-57
2022/09/15 05:32:59;;;;;;;;;8.40;8.40;;;;;20.18;100.00;98587.19;6338980;20;2734608;-53
2022/09/15 05:35:27;;;;;;;;;7.00;7.00;;;;;20.22;100.00;98585.78;6311246;20;2750289;-53
2022/09/15 05:37:56;;;;;;;;;7.60;7.60;;;;;20.15;100.00;98595.72;6339475;20;2750382;-55
2022/09/15 05:40:26;;;;;;;;;8.80;8.80;;;;;20.10;100.00;98598.16;6306131;20;2742406;-57
2022/09/15 05:42:54;;;;;;;;;9.00;7.33;;;;;20.24;100.00;98608.25;6316582;20;2754453;-57
2022/09/15 05:45:23;;;;;;;;;9.00;7.33;;;;;20.31;100.00;98605.66;6326612;20;2731585;-55
2022/09/15 05:47:51;;;;;;;;;7.67;7.67;;;;;20.31;100.00;98624.72;6325258;20;2744000;-57
2022/09/15 05:50:20;;;;;;;;;11.00;10.00;;;;;20.17;100.00;98619.03;6315200;20;2784675;-56
2022/09/15 05:52:51;;;;;;;;;10.00;8.00;;;;;20.21;100.00;98614.06;6313474;20;2757538;-50
2022/09/15 05:55:21;;;;;;;;;7.60;7.60;;;;;20.13;100.00;98633.22;6340079;20;2746141;-57
2022/09/15 05:57:49;;;;;;;;;11.33;10.00;;;;;20.20;100.00;98623.28;6289321;20;2788785;-56
2022/09/15 06:00:18;;;;;;;;;10.33;10.33;;;;;20.24;100.00;98607.41;6313661;20;2787808;-57
2022/09/15 06:02:46;;;;;;;;;9.00;9.00;;;;;20.15;100.00;98621.09;6314612;20;2744038;-55
2022/09/15 06:05:16;;;;;;;;;8.20;8.20;;;;;20.28;100.00;98617.75;6341344;20;2744048;-57
2022/09/15 06:07:44;;;;;;;;;10.00;9.00;;;;;20.41;100.00;98605.41;6290010;20;2770047;-53
2022/09/15 06:10:15;;;;;;;;;7.80;7.80;;;;;20.48;100.00;98603.59;6343498;20;2749251;-54
2022/09/15 06:12:43;;;;;;;;;10.00;8.67;;;;;20.45;100.00;98612.16;6290331;20;2761697;-54
2022/09/15 06:15:12;;;;;;;;;8.00;8.00;;;;;20.61;100.00;98601.13;6341234;20;2740883;-54
2022/09/15 06:17:41;;;;;;;;;7.67;7.67;;;;;20.68;100.00;98593.91;6285124;20;2752499;-55
2022/09/15 06:20:11;;;;;;;;;8.00;8.00;;;;;20.74;100.00;98586.84;6337106;20;2749205;-51
2022/09/15 06:22:40;;;;;;;;;9.20;9.20;;;;;20.74;100.00;98598.59;6311000;20;2772210;-57
2022/09/15 06:25:10;;;;;;;;;8.80;7.00;;;;;20.89;100.00;98605.97;6309948;20;2735667;-57
2022/09/15 06:27:41;;;;;;;;;8.80;8.80;;;;;20.95;99.68;98616.97;6339922;20;2762778;-56
2022/09/15 06:30:11;;;;;;;;;7.60;7.60;;;;;21.08;99.60;98602.69;6309783;20;2747291;-54
2022/09/15 06:32:39;;;;;;;;;9.33;8.00;;;;;21.08;98.58;98613.59;6289710;20;2770096;-55
2022/09/15 06:35:14;;;;;;;;;7.40;7.40;;;;;21.03;99.03;98619.59;6340354;20;2737787;-56
2022/09/15 06:37:43;;;;;;;;;7.67;6.67;;;;;21.08;98.70;98616.31;6281548;20;2735675;-54
2022/09/15 06:40:12;;;;;;;;;7.00;7.00;;;;;20.91;98.57;98626.59;6338215;20;2737856;-58
2022/09/15 06:42:42;;;;;;;;;7.60;7.60;;;;;21.03;98.54;98622.34;6341412;20;2749207;-56
2022/09/15 06:45:10;;;;;;;;;8.33;8.00;;;;;21.07;97.66;98622.00;6291834;20;2750249;-55
2022/09/15 06:47:39;;;;;;;;;8.00;6.00;;;;;21.12;97.25;98628.56;6321512;20;2746158;-54
2022/09/15 06:50:08;;;;;;;;;7.40;6.80;;;;;21.11;96.83;98626.84;6341404;20;2736723;-54
2022/09/15 06:52:37;;;;;;;;;8.67;6.67;;;;;21.10;95.88;98636.09;6316607;20;2749323;-56
2022/09/15 06:55:07;;;;;;;;;5.60;5.60;;;;;21.10;95.90;98637.97;6336445;20;2737928;-54
2022/09/15 06:57:36;;;;;;;;;6.40;5.80;;;;;21.23;95.83;98633.56;6337819;20;2736778;-50
2022/09/15 07:00:07;;;;;;;;;6.20;5.40;;;;;21.35;95.41;98641.25;6343109;20;2740901;-46
2022/09/15 07:02:37;;;;;;;;;8.00;7.00;;;;;21.20;95.68;98647.59;6307647;20;2748239;-47
2022/09/15 07:05:09;;;;;;;;;6.00;6.00;;;;;21.31;96.15;98653.63;6344015;20;2739925;-48
2022/09/15 07:07:39;;;;;;;;;8.40;8.00;;;;;21.42;95.07;98645.81;6344855;20;2752372;-51
2022/09/15 07:10:08;;;;;;;;;5.80;5.80;;;;;21.44;94.42;98638.28;6313265;20;2736806;-47
2022/09/15 07:12:37;;;;;;;;;7.00;7.00;;;;;21.83;93.35;98631.63;6320350;20;2744230;-48
2022/09/15 07:15:07;;;;;;;;;7.20;6.20;;;;;22.16;92.15;98636.59;6342584;20;2721132;-48
2022/09/15 07:17:37;;;;;;;;;7.80;7.80;;;;;22.22;90.85;98629.53;6341973;20;2739919;-47
2022/09/15 07:20:08;;;;;;;;;8.40;6.80;;;;;22.38;90.82;98634.75;6309186;20;2731512;-47
2022/09/15 07:22:36;;;;;;;;;7.00;5.33;;;;;22.47;90.02;98628.09;6319505;20;2742997;-51
2022/09/15 07:25:05;;;;;;;;;7.33;7.33;;;;;23.15;88.86;98641.28;6318072;20;2744020;-49
2022/09/15 07:27:34;;;;;;;;;7.33;7.33;;;;;23.30;87.63;98650.22;6325657;20;2745144;-50
2022/09/15 07:30:07;;;;;;;;;6.00;6.00;;;;;23.39;86.31;98649.00;6342978;20;2745044;-49
2022/09/15 07:32:36;;;;;;;;;5.67;5.67;;;;;22.76;88.53;98646.22;6289089;20;2747139;-47
2022/09/15 07:35:06;;;;;;;;;7.40;5.80;;;;;23.02;88.34;98652.13;6343818;20;2738926;-52
2022/09/15 07:37:35;;;;;;;;;9.20;7.00;;;;;22.83;89.03;98651.75;6343178;20;2756519;-51
2022/09/15 07:40:06;;;;;;;;;9.00;7.60;;;;;22.96;87.65;98653.72;6312253;20;2756695;-51
2022/09/15 07:42:35;;;;;;;;;6.00;6.00;;;;;23.09;87.72;98663.97;6311820;20;2741933;-48
2022/09/15 07:45:06;;;;;;;;;9.20;7.40;;;;;22.81;88.38;98655.72;6271957;20;2754610;-48
2022/09/15 07:47:34;;;;;;;;;7.67;7.67;;;;;23.02;88.10;98668.56;6231622;20;2747134;-48
2022/09/15 07:50:08;;;;;;;;;8.40;7.60;;;;;22.72;88.08;98674.16;6343977;20;2737776;-50
2022/09/15 07:52:36;;;;;;;;;9.00;9.00;;;;;22.53;90.18;98676.53;6284621;20;2756553;-51
2022/09/15 07:55:08;;;;;;;;;7.20;7.20;;;;;22.74;89.31;98672.09;6343026;20;2744179;-49
2022/09/15 07:57:40;;;;;;;;;6.20;6.20;;;;;22.92;88.68;98686.13;6307441;20;2729428;-46
2022/09/15 08:00:11;;;;;;;;;6.20;6.20;;;;;22.86;88.94;98692.41;6342588;20;2732579;-47
2022/09/15 08:02:39;;;;;;;;;6.00;6.00;;;;;22.75;88.53;98685.59;6319634;20;2741937;-51
2022/09/15 08:05:08;;;;;;;;;8.33;8.33;;;;;23.20;87.65;98688.06;6317223;20;2750302;-48
2022/09/15 08:07:36;;;;;;;;;9.33;9.33;;;;;23.14;88.42;98689.69;6320622;20;2766955;-49
2022/09/15 08:10:05;;;;;;;;;7.00;7.00;;;;;22.98;87.58;98701.78;6328633;20;2745446;-49
2022/09/15 08:12:34;;;;;;;;;7.67;7.67;;;;;23.16;88.45;98703.19;6324815;20;2746156;-50
2022/09/15 08:15:03;;;;;;;;;7.67;7.67;;;;;23.41;87.46;98709.91;6318157;20;2740853;-49
2022/09/15 08:17:33;;;;;;;;;9.00;8.67;;;;;23.68;85.93;98699.09;6325358;20;2746092;-49
2022/09/15 08:20:02;;;;;;;;;9.00;9.00;;;;;23.61;85.62;98695.47;6314490;20;2762752;-49
2022/09/15 08:22:30;;;;;;;;;9.00;6.33;;;;;23.68;85.12;98693.63;6319494;20;2743990;-48
2022/09/15 08:24:59;;;;;;;;;7.67;7.67;;;;;23.66;85.28;98693.81;6324905;20;2747143;-52
2022/09/15 08:27:28;;;;;;;;;5.80;5.80;;;;;22.95;86.47;98691.22;6343556;20;2748155;-52
2022/09/15 08:29:57;;;;;;;;;7.33;7.33;;;;;23.24;86.90;98689.34;6285881;20;2743050;-46
2022/09/15 08:32:26;;;;;;;;;8.60;7.80;;;;;23.17;86.40;98688.44;6341415;20;2739960;-55
2022/09/15 08:34:54;;;;;;;;;7.67;7.67;;;;;23.41;84.85;98693.47;6287702;20;2735731;-52
2022/09/15 08:37:23;;;;;;;;;6.00;6.00;;;;;23.80;83.64;98700.25;6318822;20;2730461;-54
2022/09/15 08:39:51;;;;;;;;;8.00;6.67;;;;;23.55;83.80;98696.28;6317370;20;2748178;-50
2022/09/15 08:42:25;;;;;;;;;5.60;5.60;;;;;23.42;84.86;98692.41;6342181;20;2732554;-53
2022/09/15 08:45:24;;;;;;;;;6.67;6.67;;;;;23.49;85.27;98688.88;6323427;20;2746282;-49
2022/09/15 08:47:59;;;;;;;;;8.00;8.00;;;;;23.41;85.33;98681.69;6314305;20;2754470;-52
2022/09/15 08:50:43;;;;;;;;;7.67;7.00;;;;;23.94;83.16;98679.22;6323472;20;2734763;-50
2022/09/15 08:53:32;;;;;;;;;7.00;7.00;;;;;23.97;82.27;98677.94;6345780;20;2732629;-54
2022/09/15 08:56:16;;;;;;;;;8.00;8.00;;;;;24.55;80.95;98675.59;6306696;20;2741900;-54
2022/09/15 08:58:46;;;;;;;;;9.00;7.80;;;;;24.57;80.25;98665.25;6308938;20;2756551;-50
2022/09/15 09:02:04;;;;;;;;;6.60;6.20;;;;;25.04;78.77;98657.84;6308507;20;2739879;-51
2022/09/15 09:05:09;;;;;;;;;6.80;5.80;;;;;24.89;77.78;98659.97;6308814;20;2742967;-50
2022/09/15 09:08:25;;;;;;;;;4.60;4.60;;;;;25.45;76.11;98664.13;6303534;20;2734613;-52
2022/09/15 09:11:15;;;;;;;;;6.00;6.00;;;;;25.99;74.38;98652.75;6291514;20;2741922;-48
2022/09/15 09:14:24;;;;;;;;;4.67;4.67;;;;;26.04;70.57;98641.06;6328498;20;2747236;-52
2022/09/15 09:17:37;;;;;;;;;5.20;4.40;;;;;25.82;72.24;98632.28;6348035;20;2752324;-51
2022/09/15 09:20:42;;;;;;;;;7.00;7.00;;;;;26.01;70.38;98633.25;6291131;20;2734646;-52
2022/09/15 09:23:20;;;;;;;;;4.20;4.20;;;;;25.71;69.60;98638.47;6346455;20;2755542;-53
2022/09/15 09:25:51;;;;;;;;;3.40;3.40;;;;;25.59;70.46;98633.66;6312878;20;2741941;-49
2022/09/15 09:29:17;;;;;;;;;4.80;4.60;;;;;25.95;69.74;98628.66;6315074;20;2747210;-49
2022/09/15 09:31:53;;;;;;;;;5.20;5.20;;;;;26.43;67.55;98622.63;6309188;20;2735718;-53
2022/09/15 09:34:59;;;;;;;;;5.67;5.33;;;;;26.70;66.67;98612.28;6288088;20;2737757;-48
2022/09/15 09:37:29;;;;;;;;;2.60;2.00;;;;;25.99;66.22;98622.50;6346248;20;2752353;-52
2022/09/15 09:39:59;;;;;;;;;5.00;5.00;;;;;26.51;67.05;98622.34;6319954;20;2748218;-48
2022/09/15 09:42:36;;;;;;;;;3.80;3.80;;;;;26.53;67.20;98622.16;6313209;20;2736708;-48
2022/09/15 09:45:13;;;;;;;;;5.00;4.60;;;;;26.17;68.10;98620.88;6309623;20;2745231;-52
2022/09/15 09:47:43;;;;;;;;;6.00;6.00;;;;;26.90;66.33;98629.47;6314163;20;2733617;-49
2022/09/15 09:50:43;;;;;;;;;4.40;4.40;;;;;26.02;66.27;98622.03;6313184;20;2748278;-51
2022/09/15 09:53:25;;;;;;;;;4.40;3.80;;;;;26.09;67.57;98618.41;6311986;20;2740913;-54
2022/09/15 09:56:21;;;;;;;;;4.00;4.00;;;;;26.82;65.23;98615.97;6311999;20;2745175;-53
2022/09/15 09:58:51;;;;;;;;;3.80;2.00;;;;;27.24;63.05;98620.91;6313205;20;2752330;-54
2022/09/15 10:01:24;;;;;;;;;5.00;5.00;;;;;27.41;63.37;98615.63;6289489;20;2749215;-52
2022/09/15 10:04:21;;;;;;;;;6.20;4.20;;;;;27.54;62.78;98618.22;6345996;20;2748188;-53
2022/09/15 10:06:55;;;;;;;;;4.00;3.00;;;;;27.24;62.02;98609.88;6314661;20;2739858;-54
2022/09/15 10:09:25;;;;;;;;;4.20;3.00;;;;;27.20;62.57;98612.25;6310887;20;2746152;-49
2022/09/15 10:12:06;;;;;;;;;3.40;3.40;;;;;27.31;59.79;98611.50;6315064;20;2756518;-53
2022/09/15 10:14:40;;;;;;;;;3.00;3.00;;;;;27.28;60.47;98605.59;6316517;20;2726464;-50
2022/09/15 10:17:43;;;;;;;;;3.00;3.00;;;;;28.08;59.62;98597.16;6344192;20;2744012;-49
2022/09/15 10:20:23;;;;;;;;;2.67;2.67;;;;;28.06;58.15;98599.31;6285333;20;2752355;-48
2022/09/15 10:23:15;;;;;;;;;6.00;4.60;;;;;28.46;58.51;98604.25;6339942;20;2745038;-59
2022/09/15 10:25:45;;;;;;;;;3.33;3.33;;;;;27.78;60.12;98591.63;6288608;20;2744010;-57
2022/09/15 10:28:30;;;;;;;;;4.80;3.40;;;;;27.53;61.06;98583.44;6343367;20;2754449;-59
2022/09/15 10:31:14;;;;;;;;;4.00;3.00;;;;;27.53;59.86;98589.78;6313239;20;2739946;-58
2022/09/15 10:33:46;;;;;;;;;4.60;4.20;;;;;28.07;58.52;98589.97;6312825;20;2750266;-58
2022/09/15 10:36:29;;;;;;;;;5.33;3.33;;;;;28.43;58.23;98566.91;6287483;20;2750237;-56
2022/09/15 10:39:44;;;;;;;;;3.80;3.40;;;;;28.37;56.77;98569.75;6340571;20;2747155;-59
2022/09/15 10:42:44;;;;;;;;;2.80;2.80;;;;;28.14;58.72;98563.09;6308277;20;2735663;-58
2022/09/15 10:45:56;;;;;;;;;4.80;4.80;;;;;27.48;61.73;98558.47;6310902;20;2748237;-57
2022/09/15 10:49:35;;;;;;;;;5.20;4.40;;;;;27.89;60.27;98568.78;6310479;20;2747265;-53
2022/09/15 10:53:04;;;;;;;;;2.67;2.67;;;;;27.91;59.44;98574.06;6286663;20;2738846;-59
2022/09/15 10:55:47;;;;;;;;;2.33;2.33;;;;;28.93;54.49;98584.13;6319472;20;2747734;-59
2022/09/15 10:58:43;;;;;;;;;6.80;4.40;;;;;28.55;56.55;98580.75;6345439;20;2748246;-57
2022/09/15 11:01:38;;;;;;;;;1.80;1.60;;;;;27.81;58.14;98573.78;6311571;20;2736446;-58
2022/09/15 11:04:56;;;;;;;;;6.40;4.80;;;;;27.39;59.72;98566.25;6312078;20;2743065;-58
2022/09/15 11:07:53;;;;;;;;;4.00;2.60;;;;;27.64;59.10;98585.41;6315548;20;2754827;-58
2022/09/15 11:10:56;;;;;;;;;3.00;3.00;;;;;27.12;57.47;98574.78;6311203;20;2740979;-58
2022/09/15 11:13:36;;;;;;;;;2.67;2.67;;;;;27.19;57.74;98566.47;6285967;20;2748582;-59
2022/09/15 11:16:50;;;;;;;;;2.40;2.00;;;;;26.88;58.90;98571.00;6340764;20;2737770;-60
2022/09/15 11:35:28;;;;;;;;;3.20;2.00;;;;;26.89;61.09;98545.13;6278419;20;2744085;-58
2022/09/15 11:38:30;;;;;;;;;2.60;2.60;;;;;26.78;61.16;98547.78;6310242;20;2752395;-56
2022/09/15 11:41:38;;;;;;;;;2.40;2.40;;;;;26.66;62.03;98544.94;6311919;20;2738222;-56
2022/09/15 11:44:19;;;;;;;;;3.40;3.40;;;;;26.60;61.99;98543.94;6280217;20;2749244;-58
2022/09/15 11:47:05;;;;;;;;;3.60;3.60;;;;;26.63;62.58;98548.16;6309137;20;2745075;-57
2022/09/15 11:50:21;;;;;;;;;3.40;3.00;;;;;26.63;62.72;98545.41;6311179;20;2739835;-57
2022/09/15 11:53:52;;;;;;;;;3.33;3.33;;;;;26.45;63.15;98541.50;6315769;20;2745075;-56
2022/09/15 11:56:34;;;;;;;;;4.40;4.40;;;;;26.30;62.73;98526.38;6337028;20;2742058;-54
2022/09/15 11:59:52;;;;;;;;;4.40;3.00;;;;;26.08;63.49;98525.94;6309466;20;2741896;-57
2022/09/15 12:02:55;;;;;;;;;2.80;2.80;;;;;26.08;63.49;98514.94;6309002;20;2741936;-55
2022/09/15 12:05:56;;;;;;;;;2.00;2.00;;;;;26.34;62.25;98509.22;6310625;20;2744001;-54
2022/09/15 12:08:55;;;;;;;;;3.00;3.00;;;;;26.17;62.63;98503.44;6308243;20;2751018;-56
2022/09/15 12:11:30;;;;;;;;;4.00;4.00;;;;;26.04;63.50;98504.38;6313517;20;2748263;-59